Terminal Aerodrome Forecast
Issued by NWS

Home | Current Version | Previous Version | Text Only | Print | Product List | Glossary On
Versions: 1 2 3 4 5 6 7 8 9 10 11 12 13 14 15 16 17 18 19 20 21 22
000
FTUS41 KOKX 020543
TAFSWF
TAF
KSWF 020543Z 0206/0312 13004KT 4SM BR OVC005
     FM020800 10004KT 2SM BR OVC004
     FM021300 13005KT 3SM -RA BR OVC006
     FM021800 VRB05KT 6SM BR SCT008 BKN015
     FM030400 VRB04KT 3SM BR BKN008
      AMD NOT SKED=

USA.gov is the U.S. government's official web portal to all federal, state and local government web resources and services.